LECD weather

La Cerdanya Airport
Alp, Catalonia, Spain

Public forecast

Using degrees Celsius for public forecast. Weather courtesy of forecast.io.

METAR (pilot weather report)

Report is more than 6 hours old.

Closest report is Pirineus - la Seu d'Urgel Airport, 20.5 nm (38.0 km) W. Retrieved 2019/07/20 18:00 UTC (10 hours ago):

LESU 201800Z 21010KT 180V250 9999 FEW070 30/15 Q1018

TAF (pilot weather forecast)

Closest forecast is Pirineus - la Seu d'Urgel Airport, 20.5 nm (38.0 km) W. Retrieved 2019/07/21 03:00 UTC (44 minutes ago):

TAF LESU 210200Z 2103/2203 VRB03KT 9999 FEW060 TX33/2115Z TN16/2105Z BECMG 2110/2112 19010KT BECMG 2118/2120 VRB03KT